Time;durP1;ratioP1;P1;durP2;ratioP2;P2;SDS_P1;SDS_P2;PMS_P1;PMS_P2;Temp;Humidity;BMP_temperature;BMP_pressure;BME280_temperature;BME280_humidity;BME280_pressure;Samples;Min_cycle;Max_cycle;Signal;HPM_P1;HPM_P2
2021/06/19 00:02:19;;;;;;;17.77;14.65;;;23.50;99.90;;;;;;5090857;28;20051;-65
2021/06/19 00:04:46;;;;;;;19.10;14.65;;;23.60;99.90;;;;;;5091151;28;20087;-65
2021/06/19 00:07:13;;;;;;;18.17;15.45;;;23.60;99.90;;;;;;5090993;28;20093;-65
2021/06/19 00:09:40;;;;;;;18.35;14.48;;;23.50;99.90;;;;;;5090198;28;20575;-65
2021/06/19 00:12:09;;;;;;;19.08;14.95;;;23.40;99.90;;;;;;5090695;28;20519;-65
2021/06/19 00:14:37;;;;;;;16.88;15.02;;;23.40;99.90;;;;;;5091229;28;20108;-65
2021/06/19 00:17:04;;;;;;;17.38;14.52;;;23.40;99.90;;;;;;5090512;28;20104;-65
2021/06/19 00:19:31;;;;;;;22.23;15.00;;;23.20;99.90;;;;;;5091609;28;20054;-65
2021/06/19 00:21:58;;;;;;;18.42;14.98;;;23.30;99.90;;;;;;5090434;28;20079;-65
2021/06/19 00:24:25;;;;;;;17.33;13.85;;;23.30;99.90;;;;;;5090727;28;20082;-65
2021/06/19 00:26:55;;;;;;;16.65;14.50;;;23.10;99.90;;;;;;5092158;28;20047;-65
2021/06/19 00:29:22;;;;;;;20.02;15.65;;;23.10;99.90;;;;;;5095073;27;20048;-65
2021/06/19 00:31:50;;;;;;;17.77;13.05;;;23.10;99.90;;;;;;5094757;27;20052;-65
2021/06/19 00:34:17;;;;;;;17.45;12.82;;;23.10;99.90;;;;;;5094045;27;20051;-65
2021/06/19 00:36:44;;;;;;;16.63;12.93;;;23.20;99.90;;;;;;5094713;27;20077;-65
2021/06/19 00:39:11;;;;;;;16.52;12.68;;;23.20;99.90;;;;;;5094731;28;20499;-65
2021/06/19 00:41:38;;;;;;;14.07;12.07;;;23.10;99.90;;;;;;5093765;27;20073;-65
2021/06/19 00:44:06;;;;;;;16.38;12.02;;;23.10;99.90;;;;;;5091131;28;20105;-65
2021/06/19 00:46:33;;;;;;;15.00;12.05;;;23.00;99.90;;;;;;5093409;28;20090;-65
2021/06/19 00:49:02;;;;;;;14.63;11.95;;;23.00;99.90;;;;;;5094577;28;20083;-65
2021/06/19 00:51:29;;;;;;;15.45;12.02;;;23.20;99.90;;;;;;5093362;28;20040;-65
2021/06/19 00:53:56;;;;;;;17.52;12.45;;;23.20;99.90;;;;;;5093927;28;20108;-65
2021/06/19 00:56:24;;;;;;;17.15;13.13;;;23.10;99.90;;;;;;5093103;28;20048;-65
2021/06/19 00:58:51;;;;;;;17.50;13.02;;;23.10;99.90;;;;;;5093511;28;20083;-65
2021/06/19 01:01:18;;;;;;;15.02;12.20;;;23.00;99.90;;;;;;5093409;27;20052;-65
2021/06/19 01:03:45;;;;;;;15.50;12.18;;;22.80;99.90;;;;;;5094244;28;20052;-65
2021/06/19 01:06:13;;;;;;;16.23;12.27;;;22.80;99.90;;;;;;5093414;28;20052;-65
2021/06/19 01:08:40;;;;;;;14.85;12.20;;;22.80;99.90;;;;;;5094543;27;20051;-65
2021/06/19 01:11:07;;;;;;;14.85;11.70;;;22.80;99.90;;;;;;5094000;28;20043;-65
2021/06/19 01:13:36;;;;;;;19.30;12.57;;;22.80;99.90;;;;;;5093981;27;20083;-65
2021/06/19 01:16:03;;;;;;;17.05;12.82;;;22.90;99.90;;;;;;5094238;28;20048;-65
2021/06/19 01:18:30;;;;;;;14.13;11.40;;;22.90;99.90;;;;;;5093855;28;20044;-67
2021/06/19 01:20:57;;;;;;;19.20;12.50;;;22.80;99.90;;;;;;5092817;27;20104;-67
2021/06/19 01:23:25;;;;;;;15.57;13.32;;;22.80;99.90;;;;;;5093784;28;20128;-67
2021/06/19 01:25:54;;;;;;;19.95;12.18;;;22.50;99.90;;;;;;5094123;27;20100;-67
2021/06/19 01:28:21;;;;;;;16.10;12.40;;;22.40;99.90;;;;;;5093946;28;20044;-67
2021/06/19 01:30:48;;;;;;;20.98;12.73;;;22.40;99.90;;;;;;5093719;28;20163;-67
2021/06/19 01:33:17;;;;;;;18.05;13.40;;;22.50;99.90;;;;;;5093284;28;20135;-67
2021/06/19 01:35:44;;;;;;;17.65;12.90;;;22.40;99.90;;;;;;5094257;28;20044;-67
2021/06/19 01:38:11;;;;;;;19.05;13.45;;;22.30;99.90;;;;;;5093508;27;20079;-67
2021/06/19 01:40:38;;;;;;;17.73;13.82;;;22.40;99.90;;;;;;5092774;28;20512;-64
2021/06/19 01:43:07;;;;;;;23.42;14.70;;;22.40;99.90;;;;;;5094056;27;20048;-67
2021/06/19 01:45:35;;;;;;;17.33;14.23;;;22.40;99.90;;;;;;5093730;28;20044;-67
2021/06/19 01:48:04;;;;;;;16.42;13.55;;;22.30;99.90;;;;;;5093825;28;20115;-66
2021/06/19 01:50:32;;;;;;;14.60;12.98;;;22.30;99.90;;;;;;5093366;28;20059;-66
2021/06/19 01:52:59;;;;;;;20.00;14.35;;;22.50;99.90;;;;;;5093335;27;20051;-66
2021/06/19 01:55:26;;;;;;;18.88;13.75;;;22.40;99.90;;;;;;5093703;28;20520;-66
2021/06/19 01:57:55;;;;;;;20.10;14.52;;;22.40;99.90;;;;;;5093040;28;20107;-66
2021/06/19 02:00:25;;;;;;;20.88;14.40;;;22.40;99.90;;;;;;5092284;28;20043;-66
2021/06/19 02:02:52;;;;;;;18.40;13.73;;;22.30;99.90;;;;;;5093861;28;20047;-66
2021/06/19 02:05:21;;;;;;;17.10;13.65;;;22.30;99.90;;;;;;5093650;28;20105;-67
2021/06/19 02:07:49;;;;;;;16.58;13.88;;;22.30;99.90;;;;;;5092755;27;20047;-67
2021/06/19 02:10:17;;;;;;;17.98;13.73;;;22.20;99.90;;;;;;5092972;27;20473;-66
2021/06/19 02:12:45;;;;;;;15.95;13.48;;;22.20;99.90;;;;;;5093190;27;20511;-66
2021/06/19 02:15:13;;;;;;;15.13;12.35;;;22.20;99.90;;;;;;5093166;28;20126;-67
2021/06/19 02:17:41;;;;;;;16.50;12.35;;;22.10;99.90;;;;;;5093631;28;20071;-66
2021/06/19 02:20:10;;;;;;;15.63;11.90;;;22.10;99.90;;;;;;5092892;27;20097;-66
2021/06/19 02:22:38;;;;;;;16.38;11.82;;;22.10;99.90;;;;;;5092093;27;20086;-66
2021/06/19 02:25:07;;;;;;;16.73;12.07;;;22.10;99.90;;;;;;5093135;27;20480;-67
2021/06/19 02:27:34;;;;;;;14.52;11.35;;;22.10;99.90;;;;;;5091822;28;20051;-66
2021/06/19 02:30:01;;;;;;;16.65;11.68;;;22.10;99.90;;;;;;5092061;27;20671;-66
2021/06/19 02:32:28;;;;;;;15.30;12.68;;;22.10;99.90;;;;;;5092633;28;20458;-66
2021/06/19 02:34:56;;;;;;;18.10;12.70;;;22.10;99.90;;;;;;5092158;28;20075;-66
2021/06/19 02:37:23;;;;;;;15.07;12.63;;;22.10;99.90;;;;;;5092726;27;20556;-66
2021/06/19 02:39:50;;;;;;;17.08;13.18;;;22.10;99.90;;;;;;5092061;27;20154;-66
2021/06/19 02:42:17;;;;;;;16.10;13.02;;;22.20;99.90;;;;;;5096050;27;20488;-66
2021/06/19 02:44:44;;;;;;;19.55;15.00;;;22.30;99.90;;;;;;5094588;27;20089;-66
2021/06/19 02:47:11;;;;;;;19.48;14.77;;;22.40;99.90;;;;;;5091885;28;20096;-66
2021/06/19 02:49:38;;;;;;;16.80;13.85;;;22.30;99.90;;;;;;5091681;28;20487;-66
2021/06/19 02:52:08;;;;;;;19.25;15.25;;;22.20;99.90;;;;;;5092454;28;20085;-66
2021/06/19 02:54:40;;;;;;;20.02;15.65;;;22.30;99.90;;;;;;5091888;27;20047;-67
2021/06/19 02:57:08;;;;;;;18.23;15.38;;;22.20;99.90;;;;;;5091946;28;20626;-67
2021/06/19 02:59:35;;;;;;;20.42;14.65;;;22.20;99.90;;;;;;5092385;28;20096;-67
2021/06/19 03:02:01;;;;;;;18.50;15.13;;;22.00;99.90;;;;;;5091108;27;21272;-67
2021/06/19 03:04:28;;;;;;;17.73;14.88;;;22.00;99.90;;;;;;5092020;28;20043;-67
2021/06/19 03:06:56;;;;;;;20.90;15.65;;;22.00;99.90;;;;;;5092594;28;20437;-67
2021/06/19 03:09:24;;;;;;;18.05;15.13;;;22.10;99.90;;;;;;5091847;27;20059;-67
2021/06/19 03:11:52;;;;;;;18.63;15.32;;;22.10;99.90;;;;;;5090827;27;20079;-67
2021/06/19 03:14:19;;;;;;;17.65;14.95;;;22.10;99.90;;;;;;5092623;27;20043;-67
2021/06/19 03:16:46;;;;;;;18.10;16.13;;;22.10;99.90;;;;;;5091346;28;20108;-67
2021/06/19 03:19:13;;;;;;;19.73;15.85;;;22.10;99.90;;;;;;5091558;28;20039;-67
2021/06/19 03:21:42;;;;;;;19.08;15.43;;;22.00;99.90;;;;;;5090590;28;20051;-66
2021/06/19 03:24:09;;;;;;;19.42;15.23;;;22.00;99.90;;;;;;5092431;27;20051;-67
2021/06/19 03:26:39;;;;;;;18.00;16.05;;;22.00;99.90;;;;;;5091442;28;20071;-66
2021/06/19 03:29:07;;;;;;;17.20;15.10;;;22.00;99.90;;;;;;5090953;28;20534;-66
2021/06/19 03:31:35;;;;;;;17.50;14.80;;;22.10;99.90;;;;;;5093478;28;20134;-66
2021/06/19 03:34:02;;;;;;;18.67;15.20;;;22.00;99.90;;;;;;5092466;28;20052;-66
2021/06/19 03:36:30;;;;;;;20.00;16.25;;;22.10;99.90;;;;;;5092122;27;20725;-66
2021/06/19 03:38:57;;;;;;;24.10;15.68;;;22.10;99.90;;;;;;5091544;27;20152;-66
2021/06/19 03:41:24;;;;;;;20.27;16.92;;;22.20;99.90;;;;;;5091088;27;20043;-66
2021/06/19 03:43:53;;;;;;;18.63;16.67;;;22.30;99.90;;;;;;5091227;27;20105;-66
2021/06/19 03:46:20;;;;;;;18.48;15.88;;;22.40;99.90;;;;;;5091673;28;20044;-66
2021/06/19 03:48:47;;;;;;;18.60;15.32;;;22.40;99.90;;;;;;5090918;28;20078;-66
2021/06/19 03:51:14;;;;;;;19.15;15.77;;;22.40;99.90;;;;;;5091033;27;20044;-66
2021/06/19 03:53:40;;;;;;;19.40;17.30;;;22.40;99.90;;;;;;5091360;27;20047;-66
2021/06/19 03:56:07;;;;;;;21.65;18.48;;;22.40;99.90;;;;;;5091023;28;20051;-66
2021/06/19 03:58:34;;;;;;;19.70;16.85;;;22.40;99.90;;;;;;5090945;28;20043;-66
2021/06/19 04:01:03;;;;;;;24.27;18.77;;;22.60;99.90;;;;;;5090390;28;20043;-66
2021/06/19 04:03:30;;;;;;;20.23;17.63;;;22.40;99.90;;;;;;5090706;28;20044;-66
2021/06/19 04:05:57;;;;;;;19.60;17.30;;;22.60;99.90;;;;;;5091146;28;20136;-66
2021/06/19 04:08:23;;;;;;;20.13;17.00;;;22.70;99.90;;;;;;5091184;28;20449;-66
2021/06/19 04:10:50;;;;;;;20.15;16.85;;;22.70;99.90;;;;;;5091153;28;20105;-66
2021/06/19 04:13:17;;;;;;;20.08;15.80;;;22.70;99.90;;;;;;5094625;28;20243;-66
2021/06/19 04:15:44;;;;;;;20.25;16.92;;;22.80;99.90;;;;;;5093308;28;20043;-66
2021/06/19 04:18:13;;;;;;;25.77;18.88;;;22.80;99.90;;;;;;5094270;28;20075;-66
2021/06/19 04:20:40;;;;;;;24.20;18.77;;;22.70;99.90;;;;;;5094470;28;20128;-66
2021/06/19 04:23:07;;;;;;;22.58;18.20;;;22.70;99.90;;;;;;5094651;28;20557;-66
2021/06/19 04:25:34;;;;;;;19.20;17.05;;;22.70;99.90;;;;;;5093226;28;21019;-67
2021/06/19 04:28:01;;;;;;;20.85;16.58;;;22.70;99.90;;;;;;5091720;28;20086;-66
2021/06/19 04:30:28;;;;;;;22.05;17.00;;;22.70;99.90;;;;;;5090905;28;20047;-66
2021/06/19 04:32:56;;;;;;;19.13;16.25;;;22.70;99.90;;;;;;5093107;28;20047;-67
2021/06/19 04:35:26;;;;;;;19.60;16.17;;;22.70;99.90;;;;;;5095080;28;20387;-67
2021/06/19 04:37:54;;;;;;;21.65;18.20;;;22.80;99.90;;;;;;5094320;28;20438;-66
2021/06/19 04:40:27;;;;;;;22.67;16.83;;;22.90;99.90;;;;;;5094219;28;20544;-66
2021/06/19 04:43:00;;;;;;;21.63;17.85;;;22.90;99.90;;;;;;5094528;28;20064;-66
2021/06/19 04:45:27;;;;;;;19.30;16.48;;;23.00;99.90;;;;;;5095416;28;20136;-66
2021/06/19 04:47:55;;;;;;;20.38;17.08;;;23.10;99.90;;;;;;5095694;28;20040;-66
2021/06/19 04:50:22;;;;;;;24.10;18.00;;;23.00;99.90;;;;;;5093681;28;20601;-67
2021/06/19 04:52:50;;;;;;;23.58;17.88;;;23.10;99.90;;;;;;5094793;28;20047;-66
2021/06/19 04:55:19;;;;;;;22.17;19.77;;;23.30;99.90;;;;;;5094653;28;20130;-66
2021/06/19 04:57:51;;;;;;;24.42;19.88;;;23.20;99.90;;;;;;5094488;28;20133;-66
2021/06/19 05:00:19;;;;;;;23.55;19.38;;;23.10;99.90;;;;;;5093870;28;20135;-64
2021/06/19 05:02:47;;;;;;;25.05;21.77;;;23.20;99.90;;;;;;5093884;28;20126;-66
2021/06/19 05:05:14;;;;;;;22.80;20.33;;;23.10;99.90;;;;;;5094426;28;20055;-67
2021/06/19 05:07:42;;;;;;;28.02;21.80;;;23.10;99.90;;;;;;5093732;28;20043;-64
2021/06/19 05:10:12;;;;;;;23.75;21.15;;;22.90;99.90;;;;;;5094188;28;20055;-66
2021/06/19 05:12:43;;;;;;;26.40;22.90;;;23.00;99.90;;;;;;5095045;28;20051;-67
2021/06/19 05:15:12;;;;;;;25.13;21.15;;;23.10;99.90;;;;;;5099078;27;20145;-66
2021/06/19 05:17:40;;;;;;;25.63;21.52;;;23.20;99.90;;;;;;5080773;28;20059;-66
2021/06/19 05:20:07;;;;;;;24.77;20.77;;;23.10;99.90;;;;;;5097255;28;20047;-66
2021/06/19 05:22:36;;;;;;;25.92;21.30;;;23.00;99.90;;;;;;5098362;28;20410;-66
2021/06/19 05:25:04;;;;;;;23.38;20.83;;;23.10;99.90;;;;;;5098077;27;20055;-66
2021/06/19 05:27:32;;;;;;;27.70;21.55;;;23.00;99.90;;;;;;5093505;28;20134;-66
2021/06/19 05:29:59;;;;;;;27.05;21.13;;;22.90;99.90;;;;;;5093587;28;20043;-66
2021/06/19 05:32:26;;;;;;;28.05;21.63;;;23.00;99.90;;;;;;5093907;28;21135;-66
2021/06/19 05:34:53;;;;;;;28.67;22.45;;;23.00;99.90;;;;;;5094189;27;20083;-66
2021/06/19 05:37:20;;;;;;;26.70;21.85;;;23.10;99.90;;;;;;5094274;28;20086;-66
2021/06/19 05:39:47;;;;;;;24.42;21.48;;;22.90;99.90;;;;;;5093581;28;20171;-66
2021/06/19 05:42:14;;;;;;;28.88;21.98;;;22.80;99.90;;;;;;5094058;27;20535;-66
2021/06/19 05:44:42;;;;;;;24.85;20.83;;;22.90;99.90;;;;;;5093735;27;20101;-66
2021/06/19 05:47:10;;;;;;;27.10;22.08;;;23.10;99.90;;;;;;5093503;27;20051;-66
2021/06/19 05:49:37;;;;;;;27.42;22.10;;;23.10;99.90;;;;;;5093657;27;20036;-66
2021/06/19 05:52:04;;;;;;;28.85;22.17;;;23.20;99.90;;;;;;5092840;28;20047;-67
2021/06/19 05:54:35;;;;;;;26.65;22.48;;;23.10;99.90;;;;;;5094362;27;20218;-66
2021/06/19 05:57:03;;;;;;;24.23;21.10;;;23.00;99.90;;;;;;5093710;27;20139;-66
2021/06/19 05:59:30;;;;;;;24.73;20.77;;;22.90;99.90;;;;;;5093445;28;20079;-66
2021/06/19 06:01:58;;;;;;;27.60;21.27;;;23.10;99.90;;;;;;5093622;27;20589;-67
2021/06/19 06:04:25;;;;;;;26.38;22.40;;;23.20;99.90;;;;;;5096284;27;20074;-65
2021/06/19 06:06:52;;;;;;;30.17;22.52;;;23.40;99.90;;;;;;5096046;27;21287;-65
2021/06/19 06:09:19;;;;;;;28.55;22.77;;;23.40;99.90;;;;;;5094163;28;20089;-64
2021/06/19 06:11:46;;;;;;;26.63;23.05;;;23.30;99.90;;;;;;5093488;27;20116;-65
2021/06/19 06:14:13;;;;;;;28.27;22.83;;;23.30;99.90;;;;;;5093694;28;20048;-66
2021/06/19 06:16:40;;;;;;;29.00;22.65;;;23.50;99.90;;;;;;5092896;27;20052;-65
2021/06/19 06:19:09;;;;;;;27.27;22.02;;;23.40;99.90;;;;;;5093597;28;20134;-65
2021/06/19 06:21:36;;;;;;;28.10;22.30;;;23.30;99.90;;;;;;5091970;27;20055;-65
2021/06/19 06:24:04;;;;;;;24.88;20.75;;;23.40;99.90;;;;;;5093229;27;20044;-65
2021/06/19 06:26:30;;;;;;;25.55;21.60;;;23.50;99.90;;;;;;5091356;28;20124;-65
2021/06/19 06:28:58;;;;;;;27.35;21.50;;;23.60;99.90;;;;;;5092515;27;20047;-64
2021/06/19 06:31:25;;;;;;;28.95;22.08;;;23.60;99.90;;;;;;5091103;28;20087;-65
2021/06/19 06:33:52;;;;;;;27.73;22.40;;;23.80;99.90;;;;;;5092227;27;20127;-64
2021/06/19 06:36:20;;;;;;;30.48;22.33;;;23.80;99.90;;;;;;5093095;27;20059;-67
2021/06/19 06:38:47;;;;;;;25.30;22.00;;;23.70;99.90;;;;;;5092560;27;20055;-69
2021/06/19 06:41:14;;;;;;;26.70;20.73;;;23.70;99.90;;;;;;5091193;27;20131;-67
2021/06/19 06:43:41;;;;;;;23.42;20.92;;;23.70;99.90;;;;;;5091663;28;20043;-67
2021/06/19 06:46:08;;;;;;;23.73;19.73;;;23.80;99.90;;;;;;5092174;28;20043;-65
2021/06/19 06:48:35;;;;;;;24.10;21.35;;;23.90;99.90;;;;;;5092503;27;20075;-65
2021/06/19 06:51:02;;;;;;;23.08;19.13;;;23.90;99.90;;;;;;5091289;28;20047;-65
2021/06/19 06:53:30;;;;;;;21.55;19.27;;;24.10;99.90;;;;;;5092181;27;20568;-65
2021/06/19 06:55:57;;;;;;;27.45;19.52;;;24.30;99.90;;;;;;5092190;27;20140;-65
2021/06/19 06:58:24;;;;;;;21.90;18.92;;;24.40;99.90;;;;;;5092541;27;20083;-64
2021/06/19 07:00:51;;;;;;;22.63;18.05;;;24.60;99.90;;;;;;5091477;28;20132;-65
2021/06/19 07:03:18;;;;;;;21.55;18.08;;;24.80;99.90;;;;;;5091533;28;20116;-65
2021/06/19 07:05:45;;;;;;;20.25;18.13;;;25.10;99.90;;;;;;5092020;28;20051;-64
2021/06/19 07:08:12;;;;;;;21.17;18.77;;;25.20;99.90;;;;;;5091529;28;20093;-65
2021/06/19 07:10:40;;;;;;;20.00;17.83;;;25.20;99.90;;;;;;5091507;28;20059;-65
2021/06/19 07:13:08;;;;;;;20.13;16.52;;;25.20;99.90;;;;;;5092607;28;20111;-65
2021/06/19 07:15:35;;;;;;;19.13;17.13;;;25.30;99.90;;;;;;5091794;28;20996;-65
2021/06/19 07:18:02;;;;;;;22.48;16.40;;;25.30;99.90;;;;;;5091725;27;20120;-65
2021/06/19 07:20:29;;;;;;;20.80;16.55;;;25.40;99.90;;;;;;5092836;28;20079;-65
2021/06/19 07:22:56;;;;;;;18.58;16.38;;;25.50;99.90;;;;;;5092062;28;20079;-65
2021/06/19 07:25:23;;;;;;;20.73;16.95;;;25.40;99.90;;;;;;5091996;27;20140;-65
2021/06/19 07:27:54;;;;;;;21.98;17.42;;;25.50;99.90;;;;;;5091494;28;20137;-65
2021/06/19 07:30:22;;;;;;;24.40;17.67;;;25.50;99.90;;;;;;5090487;28;20090;-65
2021/06/19 07:32:49;;;;;;;24.65;18.33;;;25.40;99.90;;;;;;5090784;28;20139;-65
2021/06/19 07:35:17;;;;;;;21.90;19.23;;;25.40;99.90;;;;;;5091365;28;20491;-65
2021/06/19 07:37:44;;;;;;;24.85;18.80;;;25.30;99.90;;;;;;5089918;28;20047;-65
2021/06/19 07:40:12;;;;;;;24.10;20.05;;;25.40;99.90;;;;;;5091043;28;20044;-65
2021/06/19 07:42:39;;;;;;;21.65;19.20;;;25.60;99.90;;;;;;5091035;28;20142;-65
2021/06/19 07:45:09;;;;;;;21.88;19.35;;;25.70;99.90;;;;;;5091895;28;20093;-65
2021/06/19 07:47:37;;;;;;;23.60;18.98;;;25.90;99.90;;;;;;5091866;28;20121;-65
2021/06/19 07:50:05;;;;;;;23.80;19.75;;;26.00;99.90;;;;;;5091031;28;20385;-65
2021/06/19 07:52:32;;;;;;;22.10;19.50;;;26.20;99.90;;;;;;5091182;28;20058;-65
2021/06/19 07:54:59;;;;;;;23.60;19.83;;;26.20;99.90;;;;;;5092512;28;20040;-65
2021/06/19 07:57:26;;;;;;;21.45;18.77;;;26.40;99.90;;;;;;5091168;28;20522;-65
2021/06/19 07:59:53;;;;;;;26.30;19.30;;;26.60;99.90;;;;;;5089994;28;20507;-65
2021/06/19 08:02:22;;;;;;;28.60;18.80;;;26.60;99.90;;;;;;5091173;28;20591;-65
2021/06/19 08:04:49;;;;;;;22.17;19.58;;;26.70;99.90;;;;;;5091457;28;20083;-65
2021/06/19 08:07:16;;;;;;;22.77;18.35;;;26.60;99.90;;;;;;5094173;28;20510;-65
2021/06/19 08:09:43;;;;;;;20.15;16.45;;;26.80;99.90;;;;;;5094005;28;20445;-63
2021/06/19 08:12:10;;;;;;;22.38;16.67;;;26.90;99.90;;;;;;5095211;28;20059;-63
2021/06/19 08:14:37;;;;;;;26.50;17.77;;;27.00;99.90;;;;;;5094372;28;20044;-63
2021/06/19 08:17:08;;;;;;;22.45;19.17;;;27.20;99.90;;;;;;5092257;28;20157;-63
2021/06/19 08:19:37;;;;;;;26.52;18.38;;;27.50;99.90;;;;;;5093682;28;20047;-63
2021/06/19 08:22:06;;;;;;;25.42;18.67;;;28.00;99.90;;;;;;5093815;28;20151;-63
2021/06/19 08:24:34;;;;;;;25.20;18.85;;;28.20;99.90;;;;;;5095458;28;20051;-64
2021/06/19 08:27:01;;;;;;;26.48;19.17;;;28.50;99.90;;;;;;5095249;28;20043;-63
2021/06/19 08:29:28;;;;;;;26.50;19.20;;;28.30;99.90;;;;;;5095009;28;20100;-63
2021/06/19 08:31:55;;;;;;;25.55;17.20;;;28.60;99.90;;;;;;5092656;28;20040;-63
2021/06/19 08:34:22;;;;;;;24.20;15.98;;;28.60;99.90;;;;;;5093344;28;20071;-63
2021/06/19 08:36:50;;;;;;;20.13;16.60;;;29.00;99.90;;;;;;5093271;28;20703;-63
2021/06/19 08:39:17;;;;;;;25.88;17.50;;;28.60;99.90;;;;;;5092488;28;20116;-63
2021/06/19 08:41:47;;;;;;;23.42;17.80;;;28.70;99.90;;;;;;5092964;28;20132;-63
2021/06/19 08:44:21;;;;;;;24.05;16.25;;;28.70;99.90;;;;;;5094650;28;20059;-63
2021/06/19 08:46:50;;;;;;;19.25;15.23;;;28.60;99.90;;;;;;5094268;28;20504;-63
2021/06/19 08:49:17;;;;;;;19.30;15.40;;;28.50;99.90;;;;;;5096627;28;20051;-63
2021/06/19 08:51:45;;;;;;;20.13;13.82;;;28.50;99.90;;;;;;5095347;28;20047;-64
2021/06/19 08:54:14;;;;;;;17.35;14.00;;;28.60;99.90;;;;;;5096538;27;20048;-63
2021/06/19 08:56:42;;;;;;;18.92;15.27;;;28.30;99.90;;;;;;5097987;27;20371;-63
2021/06/19 08:59:09;;;;;;;21.23;13.77;;;27.90;99.90;;;;;;5098413;28;20048;-63
2021/06/19 09:01:37;;;;;;;23.27;14.50;;;27.90;99.90;;;;;;5098047;27;20075;-63
2021/06/19 09:04:05;;;;;;;18.80;13.55;;;28.00;99.90;;;;;;5097353;28;20101;-63
2021/06/19 09:06:33;;;;;;;23.23;14.93;;;28.10;99.90;;;;;;5097462;28;20096;-63
2021/06/19 09:09:08;;;;;;;19.17;15.02;;;28.20;99.90;;;;;;5094891;28;20052;-63
2021/06/19 09:11:38;;;;;;;19.95;16.45;;;28.00;99.90;;;;;;5094211;28;20092;-63
2021/06/19 09:14:07;;;;;;;26.58;16.90;;;27.60;99.90;;;;;;5096398;27;20043;-63
2021/06/19 09:16:35;;;;;;;26.95;17.20;;;27.50;99.90;;;;;;5097860;28;20388;-63
2021/06/19 09:19:02;;;;;;;28.83;18.42;;;27.40;99.90;;;;;;5097544;27;20108;-63
2021/06/19 09:21:35;;;;;;;24.25;17.55;;;27.20;99.90;;;;;;5097185;28;20097;-63
2021/06/19 09:24:02;;;;;;;31.17;19.42;;;27.10;99.90;;;;;;5095815;28;20128;-63
2021/06/19 09:26:32;;;;;;;28.13;18.92;;;26.90;99.90;;;;;;5095236;27;20214;-63
2021/06/19 09:29:09;;;;;;;28.42;19.23;;;27.00;99.90;;;;;;5095285;28;20086;-63
2021/06/19 09:31:42;;;;;;;22.63;18.38;;;27.10;99.90;;;;;;5097423;28;20128;-63
2021/06/19 09:34:11;;;;;;;25.90;18.08;;;27.20;99.90;;;;;;5097204;28;20121;-63
2021/06/19 09:36:40;;;;;;;27.52;16.92;;;27.20;99.90;;;;;;5097660;27;20044;-63
2021/06/19 09:39:08;;;;;;;24.38;16.67;;;27.40;99.90;;;;;;5098301;28;20097;-63
2021/06/19 09:41:36;;;;;;;23.05;17.38;;;27.30;99.90;;;;;;5094131;28;20078;-63
2021/06/19 09:44:06;;;;;;;21.73;16.17;;;27.60;99.90;;;;;;5093995;27;20508;-64
2021/06/19 09:46:33;;;;;;;22.27;15.90;;;27.60;99.90;;;;;;5093535;28;20567;-63
2021/06/19 09:49:15;;;;;;;17.83;15.40;;;27.90;99.90;;;;;;5093930;27;20071;-63
2021/06/19 09:51:47;;;;;;;20.05;15.75;;;28.40;99.90;;;;;;5092222;28;20048;-63
2021/06/19 09:54:15;;;;;;;22.42;15.90;;;29.50;99.90;;;;;;5093211;28;20051;-63
2021/06/19 09:56:47;;;;;;;22.38;15.95;;;30.90;99.90;;;;;;5093432;28;20093;-63
2021/06/19 09:59:26;;;;;;;21.40;14.02;;;31.70;99.90;;;;;;5092713;28;20056;-64
2021/06/19 10:01:54;;;;;;;19.63;15.23;;;32.80;99.90;;;;;;5091773;28;20127;-64
2021/06/19 10:04:25;;;;;;;17.92;14.27;;;32.20;99.90;;;;;;5093087;28;20524;-64
2021/06/19 10:06:52;;;;;;;19.50;13.20;;;32.90;99.90;;;;;;5093303;27;20054;-65
2021/06/19 10:09:20;;;;;;;18.67;13.82;;;34.00;99.90;;;;;;5093800;27;20047;-64
2021/06/19 10:11:49;;;;;;;18.83;13.13;;;34.80;99.90;;;;;;5092467;27;20047;-64
2021/06/19 10:14:19;;;;;;;19.23;13.70;;;35.30;99.90;;;;;;5093239;28;20048;-64
2021/06/19 10:16:49;;;;;;;15.63;11.95;;;35.10;99.90;;;;;;5091866;27;20066;-64
2021/06/19 10:19:20;;;;;;;16.85;12.70;;;34.80;99.90;;;;;;5093907;27;20104;-64
2021/06/19 10:21:50;;;;;;;25.60;12.73;;;34.40;99.90;;;;;;5093975;28;20074;-64
2021/06/19 10:24:17;;;;;;;19.10;12.80;;;34.40;99.90;;;;;;5092997;28;20074;-64
2021/06/19 10:26:44;;;;;;;19.85;12.73;;;35.10;99.90;;;;;;5093340;27;20450;-64
2021/06/19 10:29:13;;;;;;;15.95;12.48;;;35.70;99.90;;;;;;5092914;28;20047;-64
2021/06/19 10:31:43;;;;;;;18.27;10.98;;;36.10;99.90;;;;;;5090861;28;20075;-64
2021/06/19 10:34:29;;;;;;;15.80;11.73;;;35.70;99.90;;;;;;5092330;28;20043;-64
2021/06/19 10:36:59;;;;;;;16.38;10.90;;;36.00;99.90;;;;;;5092529;27;20098;-64
2021/06/19 10:39:41;;;;;;;16.27;10.73;;;35.60;99.90;;;;;;5091385;28;21080;-64
2021/06/19 10:42:29;;;;;;;17.52;11.07;;;35.90;99.90;;;;;;5091943;27;20511;-64
2021/06/19 10:45:02;;;;;;;14.63;11.43;;;36.30;99.90;;;;;;5092497;27;20047;-65
2021/06/19 10:47:31;;;;;;;16.50;10.95;;;36.80;99.90;;;;;;5091869;28;20130;-64
2021/06/19 10:50:01;;;;;;;15.20;9.65;;;37.60;98.80;;;;;;5091853;27;20992;-64
2021/06/19 10:52:37;;;;;;;16.48;9.00;;;37.80;98.20;;;;;;5091725;28;20054;-65
2021/06/19 10:55:26;;;;;;;15.45;8.50;;;38.30;96.30;;;;;;5092834;28;20048;-65
2021/06/19 10:57:55;;;;;;;14.35;9.45;;;38.30;95.60;;;;;;5092797;28;20066;-64
2021/06/19 11:00:33;;;;;;;16.40;10.02;;;37.50;94.90;;;;;;5091260;28;20393;-64
2021/06/19 11:03:03;;;;;;;11.90;9.05;;;37.70;95.40;;;;;;5092696;28;20071;-64
2021/06/19 11:05:59;;;;;;;14.30;9.20;;;38.10;94.30;;;;;;5092101;28;20043;-64
2021/06/19 11:08:27;;;;;;;15.87;8.77;;;37.80;94.90;;;;;;5079382;27;20058;-64
2021/06/19 11:11:00;;;;;;;12.43;8.77;;;38.30;94.60;;;;;;5091881;28;20051;-64
2021/06/19 11:13:47;;;;;;;16.92;9.13;;;38.60;93.40;;;;;;5094780;28;20039;-64
2021/06/19 11:16:50;;;;;;;11.60;8.70;;;38.20;93.30;;;;;;5095059;28;20062;-64
2021/06/19 11:19:40;;;;;;;15.60;10.15;;;38.50;92.40;;;;;;5092351;27;20071;-64
2021/06/19 11:22:33;;;;;;;9.68;6.30;;;38.70;88.10;;;;;;5094079;28;20078;-64
2021/06/19 11:25:21;;;;;;;13.15;6.68;;;38.80;89.50;;;;;;5091694;27;20456;-64
2021/06/19 11:28:00;;;;;;;16.92;7.18;;;39.10;87.30;;;;;;5091963;28;20074;-64
2021/06/19 11:30:49;;;;;;;11.00;6.20;;;39.30;84.80;;;;;;5091411;27;20549;-64
2021/06/19 11:33:52;;;;;;;13.23;6.20;;;39.60;83.80;;;;;;5095273;27;20499;-64
2021/06/19 11:36:34;;;;;;;12.13;6.13;;;39.40;83.40;;;;;;5092290;28;20059;-64
2021/06/19 11:39:08;;;;;;;14.95;7.80;;;39.50;81.10;;;;;;5091922;27;20096;-64
2021/06/19 11:41:38;;;;;;;11.57;6.93;;;40.00;80.80;;;;;;5089691;28;20079;-64
2021/06/19 11:44:17;;;;;;;17.38;6.47;;;40.40;78.70;;;;;;5091185;28;20074;-64
2021/06/19 11:46:55;;;;;;;11.98;6.57;;;40.60;77.60;;;;;;5091203;28;20052;-64
2021/06/19 11:49:34;;;;;;;19.45;7.03;;;40.50;71.70;;;;;;5073260;28;20044;-64
2021/06/19 11:52:02;;;;;;;14.48;6.50;;;38.00;76.70;;;;;;5089922;28;20051;-64
2021/06/19 11:54:30;;;;;;;22.27;7.00;;;39.20;75.20;;;;;;5091013;28;20086;-64
2021/06/19 11:56:58;;;;;;;12.55;5.60;;;39.10;74.00;;;;;;5090593;28;20088;-65
2021/06/19 11:59:27;;;;;;;13.13;5.88;;;40.10;73.30;;;;;;5090379;28;20564;-64
2021/06/19 12:01:54;;;;;;;14.52;6.28;;;40.60;70.80;;;;;;5090246;28;20100;-64
2021/06/19 12:04:23;;;;;;;16.92;5.50;;;40.90;68.60;;;;;;5090417;28;20263;-64
2021/06/19 12:06:52;;;;;;;16.35;6.47;;;39.40;69.40;;;;;;5090956;27;20100;-64
2021/06/19 12:09:20;;;;;;;19.65;5.65;;;39.20;71.10;;;;;;5089930;28;20054;-64
2021/06/19 12:11:52;;;;;;;13.27;6.40;;;39.70;71.70;;;;;;5089060;28;20060;-64
2021/06/19 12:14:23;;;;;;;14.27;6.00;;;40.00;68.70;;;;;;5090682;28;20043;-64
2021/06/19 12:16:52;;;;;;;15.40;6.03;;;39.60;70.80;;;;;;5090207;28;21425;-65
2021/06/19 12:19:21;;;;;;;14.38;5.60;;;39.70;68.10;;;;;;5091383;28;20061;-64
2021/06/19 12:21:48;;;;;;;11.63;5.72;;;39.70;67.60;;;;;;5090248;28;20079;-64
2021/06/19 12:24:27;;;;;;;15.05;5.78;;;39.80;67.50;;;;;;5089744;28;20093;-64
2021/06/19 12:27:09;;;;;;;11.93;6.10;;;39.30;68.50;;;;;;5090823;28;21366;-64
2021/06/19 12:29:42;;;;;;;11.55;5.82;;;39.50;68.20;;;;;;5090317;28;20101;-65
2021/06/19 12:32:21;;;;;;;18.63;6.43;;;40.30;69.30;;;;;;5091219;28;20047;-65
2021/06/19 12:34:48;;;;;;;14.88;6.47;;;40.90;68.20;;;;;;5090240;28;20411;-65
2021/06/19 12:37:16;;;;;;;15.52;6.10;;;41.50;65.90;;;;;;5091696;28;20039;-65
2021/06/19 12:39:46;;;;;;;11.98;5.88;;;41.70;64.80;;;;;;5089589;28;20131;-65